createdAt,value
2023-04-18T00:02:04.743Z,6.50
2023-04-18T00:04:34.148Z,6.60
2023-04-18T00:07:02.508Z,6.70
2023-04-18T00:09:30.864Z,6.60
2023-04-18T00:12:01.619Z,6.60
2023-04-18T00:14:30.120Z,6.70
2023-04-18T00:16:58.622Z,6.70
2023-04-18T00:19:26.895Z,6.60
2023-04-18T00:21:55.961Z,6.60
2023-04-18T00:24:24.658Z,6.70
2023-04-18T00:26:56.890Z,6.70
2023-04-18T00:29:26.557Z,6.80
2023-04-18T00:31:54.937Z,6.70
2023-04-18T00:34:23.117Z,6.70
2023-04-18T00:36:51.375Z,6.70
2023-04-18T00:39:19.696Z,6.60
2023-04-18T00:41:47.949Z,6.60
2023-04-18T00:44:16.284Z,6.60
2023-04-18T00:46:46.039Z,6.40
2023-04-18T00:49:14.776Z,6.50
2023-04-18T00:51:43.253Z,6.50
2023-04-18T00:54:13.397Z,6.50
2023-04-18T00:56:42.425Z,6.40
2023-04-18T00:59:11.237Z,6.40
2023-04-18T01:01:40.165Z,6.40
2023-04-18T01:04:10.358Z,6.40
2023-04-18T01:06:39.081Z,6.50
2023-04-18T01:09:10.689Z,6.60
2023-04-18T01:11:39.338Z,6.60
2023-04-18T01:14:09.525Z,6.70
2023-04-18T01:16:38.909Z,6.50
2023-04-18T01:19:07.640Z,6.60
2023-04-18T01:21:43.866Z,6.40
2023-04-18T01:24:16.117Z,6.60
2023-04-18T01:26:47.623Z,6.50
2023-04-18T01:29:16.495Z,6.50
2023-04-18T01:31:44.881Z,6.50
2023-04-18T01:34:13.610Z,6.60
2023-04-18T01:36:42.421Z,6.50
2023-04-18T01:39:10.685Z,6.60
2023-04-18T01:41:40.722Z,6.70
2023-04-18T01:44:08.930Z,6.60
2023-04-18T01:46:37.234Z,6.70
2023-04-18T01:49:06.199Z,6.70
2023-04-18T01:51:34.546Z,6.60
2023-04-18T01:54:02.751Z,6.60
2023-04-18T01:56:31.087Z,6.50
2023-04-18T01:59:00.951Z,6.50
2023-04-18T02:01:33.498Z,6.40
2023-04-18T02:04:01.942Z,6.40
2023-04-18T02:06:30.982Z,6.30
2023-04-18T02:08:59.245Z,6.30
2023-04-18T02:11:27.724Z,6.40
2023-04-18T02:13:56.525Z,6.40
2023-04-18T02:16:26.295Z,6.40
2023-04-18T02:18:54.554Z,6.50
2023-04-18T02:21:22.877Z,6.40
2023-04-18T02:23:51.332Z,6.30
2023-04-18T02:26:20.098Z,6.40
2023-04-18T02:28:48.378Z,6.40
2023-04-18T02:31:16.781Z,6.50
2023-04-18T02:33:47.762Z,6.50
2023-04-18T02:36:16.178Z,6.40
2023-04-18T02:38:44.978Z,6.30
2023-04-18T02:41:19.674Z,6.40
2023-04-18T02:43:48.649Z,6.40
2023-04-18T02:46:17.597Z,6.50
2023-04-18T02:48:47.314Z,6.50
2023-04-18T02:51:15.627Z,6.50
2023-04-18T02:53:43.901Z,6.50
2023-04-18T02:56:13.014Z,6.40
2023-04-18T02:58:41.674Z,6.50
2023-04-18T03:01:09.942Z,6.60
2023-04-18T03:03:38.498Z,6.50
2023-04-18T03:06:08.313Z,6.50
2023-04-18T03:08:36.930Z,6.30
2023-04-18T03:11:05.571Z,6.30
2023-04-18T03:13:33.915Z,6.40
2023-04-18T03:16:08.696Z,6.40
2023-04-18T03:18:37.456Z,6.30
2023-04-18T03:21:07.340Z,6.40
2023-04-18T03:23:35.567Z,6.30
2023-04-18T03:26:04.096Z,6.40
2023-04-18T03:28:32.494Z,6.40
2023-04-18T03:31:00.994Z,6.40
2023-04-18T03:33:29.845Z,6.40
2023-04-18T03:35:58.205Z,6.40
2023-04-18T03:38:28.837Z,6.40
2023-04-18T03:40:57.050Z,6.50
2023-04-18T03:43:25.382Z,6.50
2023-04-18T03:45:53.711Z,6.50
2023-04-18T03:48:22.036Z,6.40
2023-04-18T03:50:51.418Z,6.40
2023-04-18T03:53:19.708Z,6.40
2023-04-18T03:55:49.937Z,6.30
2023-04-18T03:58:23.621Z,6.40
2023-04-18T04:00:52.113Z,6.40
2023-04-18T04:03:21.123Z,6.40
2023-04-18T04:05:49.700Z,6.30
2023-04-18T04:08:18.064Z,6.30
2023-04-18T04:10:46.268Z,6.20
2023-04-18T04:13:15.862Z,6.20
2023-04-18T04:15:44.230Z,6.30
2023-04-18T04:18:12.521Z,6.30
2023-04-18T04:20:40.867Z,6.30
2023-04-18T04:23:11.461Z,6.30
2023-04-18T04:25:39.806Z,6.20
2023-04-18T04:28:08.251Z,6.20
2023-04-18T04:30:43.410Z,6.20
2023-04-18T04:33:28.795Z,6.20
2023-04-18T04:35:57.972Z,6.20
2023-04-18T04:38:27.502Z,6.10
2023-04-18T04:40:55.932Z,6.10
2023-04-18T04:43:24.455Z,6.20
2023-04-18T04:45:55.034Z,6.20
2023-04-18T04:48:24.739Z,6.20
2023-04-18T04:50:56.704Z,6.20
2023-04-18T04:53:28.458Z,6.10
2023-04-18T04:55:59.833Z,6.20
2023-04-18T04:58:28.769Z,6.20
2023-04-18T05:00:58.530Z,6.20
2023-04-18T05:03:27.023Z,6.20
2023-04-18T05:05:55.544Z,6.20
2023-04-18T05:08:23.783Z,6.20
2023-04-18T05:10:52.503Z,6.10
2023-04-18T05:13:22.263Z,6.10
2023-04-18T05:15:51.982Z,6.00
2023-04-18T05:18:21.915Z,6.10
2023-04-18T05:20:50.120Z,6.10
2023-04-18T05:23:18.401Z,6.10
2023-04-18T05:25:46.697Z,6.10
2023-04-18T05:28:15.348Z,6.10
2023-04-18T05:30:43.739Z,6.20
2023-04-18T05:33:11.997Z,6.20
2023-04-18T05:35:41.602Z,6.20
2023-04-18T05:38:09.850Z,6.20
2023-04-18T05:40:38.069Z,6.30
2023-04-18T05:43:06.271Z,6.20
2023-04-18T05:45:34.451Z,6.20
2023-04-18T05:48:06.031Z,6.20
2023-04-18T05:50:34.296Z,6.20
2023-04-18T05:53:04.007Z,6.20
2023-04-18T05:55:32.307Z,6.30
2023-04-18T05:58:00.788Z,6.30
2023-04-18T06:00:29.005Z,6.20
2023-04-18T06:02:57.439Z,6.20
2023-04-18T06:05:26.540Z,6.20
2023-04-18T06:07:54.839Z,6.30
2023-04-18T06:10:24.591Z,6.30
2023-04-18T06:12:55.859Z,6.30
2023-04-18T06:15:24.487Z,6.30
2023-04-18T06:17:52.797Z,6.30
2023-04-18T06:20:23.165Z,6.40
2023-04-18T06:22:51.387Z,6.30
2023-04-18T06:25:19.644Z,6.40
2023-04-18T06:27:49.313Z,6.50
2023-04-18T06:30:19.785Z,6.40
2023-04-18T06:32:48.892Z,6.50
2023-04-18T06:35:17.855Z,6.50
2023-04-18T06:37:46.476Z,6.50
2023-04-18T06:40:15.168Z,6.60
2023-04-18T06:42:44.063Z,6.50
2023-04-18T06:45:14.017Z,6.50
2023-04-18T06:47:45.998Z,6.50
2023-04-18T06:50:14.915Z,6.50
2023-04-18T06:52:45.558Z,6.60
2023-04-18T06:55:14.790Z,6.60
2023-04-18T06:57:43.733Z,6.60
2023-04-18T07:00:14.684Z,6.60
2023-04-18T07:02:43.090Z,6.60
2023-04-18T07:05:11.794Z,6.70
2023-04-18T07:07:43.199Z,6.70
2023-04-18T07:10:11.946Z,6.70
2023-04-18T07:12:40.310Z,6.80
2023-04-18T07:15:14.006Z,6.90
2023-04-18T07:17:42.296Z,6.70
2023-04-18T07:20:13.067Z,6.80
2023-04-18T07:22:42.601Z,6.80
2023-04-18T07:25:11.136Z,6.80
2023-04-18T07:27:39.473Z,6.80
2023-04-18T07:30:09.102Z,6.70
2023-04-18T07:32:38.899Z,6.70
2023-04-18T07:35:09.535Z,6.70
2023-04-18T07:37:38.210Z,6.80
2023-04-18T07:40:08.552Z,6.80
2023-04-18T07:42:36.855Z,6.80
2023-04-18T07:45:05.871Z,6.90
2023-04-18T07:47:34.746Z,6.90
2023-04-18T07:50:04.889Z,6.90
2023-04-18T07:52:33.084Z,7.00
2023-04-18T07:55:04.606Z,7.00
2023-04-18T07:57:33.316Z,7.10
2023-04-18T08:00:01.779Z,7.10
2023-04-18T08:02:30.172Z,7.20
2023-04-18T08:04:59.032Z,7.30
2023-04-18T08:07:28.624Z,7.20
2023-04-18T08:09:56.899Z,7.20
2023-04-18T08:12:25.337Z,7.30
2023-04-18T08:14:53.943Z,7.40
2023-04-18T08:17:23.376Z,7.40
2023-04-18T08:19:52.497Z,7.30
2023-04-18T08:22:20.928Z,7.50
2023-04-18T08:25:03.889Z,7.30
2023-04-18T08:27:33.955Z,7.40
2023-04-18T08:30:04.128Z,7.40
2023-04-18T08:32:32.734Z,7.60
2023-04-18T08:35:00.922Z,7.50
2023-04-18T08:37:29.128Z,7.60
2023-04-18T08:39:58.659Z,7.70
2023-04-18T08:42:27.474Z,7.80
2023-04-18T08:44:56.048Z,8.00
2023-04-18T08:47:24.330Z,8.20
2023-04-18T08:49:53.622Z,7.90
2023-04-18T08:52:25.041Z,8.00
2023-04-18T08:54:53.323Z,8.00
2023-04-18T08:57:26.856Z,7.80
2023-04-18T09:00:00.668Z,7.90
2023-04-18T09:02:42.308Z,8.00
2023-04-18T09:05:15.301Z,8.20
2023-04-18T09:07:43.826Z,8.20
2023-04-18T09:10:12.787Z,8.10
2023-04-18T09:12:50.257Z,8.00
2023-04-18T09:15:22.557Z,8.00
2023-04-18T09:17:53.361Z,8.10
2023-04-18T09:20:34.607Z,8.20
2023-04-18T09:23:03.963Z,8.00
2023-04-18T09:25:35.929Z,8.20
2023-04-18T09:28:08.141Z,8.30
2023-04-18T09:30:39.362Z,8.50
2023-04-18T09:33:10.277Z,8.50
2023-04-18T09:35:39.117Z,8.70
2023-04-18T09:38:08.768Z,8.80
2023-04-18T09:40:37.234Z,8.90
2023-04-18T09:43:20.954Z,9.10
2023-04-18T09:45:53.849Z,9.20
2023-04-18T09:48:22.790Z,9.60
2023-04-18T09:50:57.143Z,9.90
2023-04-18T09:53:29.460Z,10.40
2023-04-18T09:55:58.671Z,10.40
2023-04-18T09:58:33.826Z,10.00
2023-04-18T10:01:03.273Z,10.60
2023-04-18T10:03:40.895Z,11.00
2023-04-18T10:06:10.624Z,11.30
2023-04-18T10:08:40.911Z,11.40
2023-04-18T10:11:09.542Z,11.30
2023-04-18T10:13:40.440Z,10.30
2023-04-18T10:16:09.082Z,10.80
2023-04-18T10:18:37.834Z,11.40
2023-04-18T10:21:06.968Z,12.90
2023-04-18T10:23:37.487Z,14.50
2023-04-18T10:26:06.048Z,15.70
2023-04-18T10:28:56.853Z,16.20
2023-04-18T10:31:27.067Z,15.70
2023-04-18T10:36:28.308Z,14.40
2023-04-18T10:39:01.009Z,13.80
2023-04-18T10:41:30.923Z,13.50
2023-04-18T10:44:15.836Z,12.90
2023-04-18T10:47:01.859Z,12.80
2023-04-18T10:49:33.937Z,12.50
2023-04-18T10:52:04.416Z,12.80
2023-04-18T10:54:39.305Z,12.70
2023-04-18T10:57:09.022Z,12.60
2023-04-18T10:59:40.945Z,12.40
2023-04-18T11:02:24.257Z,12.50
2023-04-18T11:04:53.559Z,12.80
2023-04-18T11:07:33.373Z,12.60
2023-04-18T11:10:02.620Z,12.40
2023-04-18T11:12:32.769Z,12.20
2023-04-18T11:15:05.213Z,12.20
2023-04-18T11:17:35.742Z,12.30
2023-04-18T11:20:09.076Z,12.30
2023-04-18T11:22:48.770Z,12.90
2023-04-18T11:25:17.836Z,13.80
2023-04-18T11:27:48.740Z,14.20
2023-04-18T11:30:20.079Z,14.70
2023-04-18T11:32:48.460Z,14.90
2023-04-18T11:35:17.547Z,14.30
2023-04-18T11:37:46.523Z,14.00
2023-04-18T11:40:15.751Z,14.80
2023-04-18T11:42:44.312Z,14.90
2023-04-18T11:45:13.979Z,14.30
2023-04-18T11:47:44.510Z,13.30
2023-04-18T11:50:14.351Z,13.10
2023-04-18T11:52:43.498Z,12.80
2023-04-18T11:55:14.232Z,12.30
2023-04-18T11:57:42.986Z,12.20
2023-04-18T12:00:13.356Z,11.90
2023-04-18T12:02:44.604Z,11.70
2023-04-18T12:05:15.200Z,11.60
2023-04-18T12:07:47.973Z,11.50
2023-04-18T12:10:26.441Z,11.30
2023-04-18T12:12:56.086Z,11.00
2023-04-18T12:15:27.299Z,10.80
2023-04-18T12:18:01.855Z,10.70
2023-04-18T12:20:37.899Z,10.70
2023-04-18T12:23:06.716Z,10.80
2023-04-18T12:25:35.359Z,10.90
2023-04-18T12:28:05.279Z,10.80
2023-04-18T12:30:36.966Z,10.70
2023-04-18T12:33:09.171Z,10.80
2023-04-18T12:35:37.464Z,10.80
2023-04-18T12:38:08.710Z,10.70
2023-04-18T12:40:36.894Z,10.90
2023-04-18T12:43:05.122Z,11.00
2023-04-18T12:45:33.441Z,11.10
2023-04-18T12:48:01.832Z,11.10
2023-04-18T12:50:31.886Z,11.10
2023-04-18T12:53:05.435Z,11.10
2023-04-18T12:55:33.887Z,11.20
2023-04-18T12:58:02.174Z,11.40
2023-04-18T13:00:32.367Z,11.60
2023-04-18T13:03:01.240Z,11.70
2023-04-18T13:05:33.928Z,11.70
2023-04-18T13:10:34.115Z,11.40
2023-04-18T13:13:02.376Z,11.40
2023-04-18T13:15:30.837Z,11.30
2023-04-18T13:18:04.359Z,11.10
2023-04-18T13:20:34.539Z,11.10
2023-04-18T13:23:03.805Z,11.10
2023-04-18T13:25:35.480Z,11.10
2023-04-18T13:28:03.953Z,11.10
2023-04-18T13:30:32.331Z,10.90
2023-04-18T13:33:00.664Z,10.90
2023-04-18T13:35:28.913Z,11.00
2023-04-18T13:37:58.534Z,11.00
2023-04-18T13:40:26.738Z,11.00
2023-04-18T13:42:54.991Z,11.00
2023-04-18T13:45:23.366Z,11.00
2023-04-18T13:47:51.771Z,11.00
2023-04-18T13:50:23.172Z,10.90
2023-04-18T13:52:52.011Z,10.80
2023-04-18T13:55:21.658Z,10.80
2023-04-18T13:57:50.130Z,10.60
2023-04-18T14:00:19.475Z,10.50
2023-04-18T14:02:48.359Z,10.50
2023-04-18T14:05:20.038Z,10.60
2023-04-18T14:07:48.779Z,10.60
2023-04-18T14:10:16.985Z,10.60
2023-04-18T14:12:46.999Z,10.60
2023-04-18T14:15:28.603Z,10.60
2023-04-18T14:18:02.133Z,10.80
2023-04-18T14:20:34.409Z,11.00
2023-04-18T14:23:02.837Z,11.00
2023-04-18T14:25:32.233Z,11.00
2023-04-18T14:28:11.031Z,10.90
2023-04-18T14:30:40.298Z,10.90
2023-04-18T14:33:10.262Z,11.00
2023-04-18T14:35:38.712Z,11.20
2023-04-18T14:38:06.922Z,11.30
2023-04-18T14:40:39.108Z,11.50
2023-04-18T14:43:08.914Z,11.40
2023-04-18T14:45:37.414Z,11.50
2023-04-18T14:48:07.959Z,11.60
2023-04-18T14:50:38.596Z,11.60
2023-04-18T14:53:07.358Z,11.80
2023-04-18T14:55:35.762Z,11.60
2023-04-18T14:58:03.993Z,11.80
2023-04-18T15:00:34.033Z,11.90
2023-04-18T15:03:03.921Z,11.90
2023-04-18T15:05:32.865Z,11.80
2023-04-18T15:08:02.615Z,11.80
2023-04-18T15:10:31.148Z,11.80
2023-04-18T15:13:05.754Z,11.90
2023-04-18T15:15:41.739Z,12.00
2023-04-18T15:18:14.124Z,12.00
2023-04-18T15:21:00.299Z,12.00
2023-04-18T15:23:37.053Z,12.10
2023-04-18T15:26:13.378Z,12.10
2023-04-18T15:28:50.687Z,11.90
2023-04-18T15:31:28.686Z,11.80
2023-04-18T15:33:59.700Z,11.60
2023-04-18T15:36:29.412Z,11.60
2023-04-18T15:38:57.853Z,11.50
2023-04-18T15:41:26.541Z,11.30
2023-04-18T15:43:55.271Z,11.10
2023-04-18T15:46:25.089Z,11.20
2023-04-18T15:48:54.530Z,11.00
2023-04-18T15:51:22.821Z,11.10
2023-04-18T15:53:51.241Z,11.00
2023-04-18T15:56:19.764Z,11.10
2023-04-18T15:58:48.009Z,10.90
2023-04-18T16:01:16.377Z,11.00
2023-04-18T16:03:46.326Z,11.00
2023-04-18T16:13:43.278Z,11.10
2023-04-18T16:16:11.904Z,11.20
2023-04-18T16:18:40.469Z,11.20
2023-04-18T16:21:13.582Z,11.20
2023-04-18T16:23:42.116Z,11.20
2023-04-18T16:26:10.444Z,11.30
2023-04-18T16:28:39.184Z,11.30
2023-04-18T16:31:13.878Z,11.40
2023-04-18T16:33:45.495Z,11.30
2023-04-18T16:36:23.720Z,11.30
2023-04-18T16:38:55.605Z,11.30
2023-04-18T16:41:26.420Z,11.30
2023-04-18T16:44:00.920Z,11.20
2023-04-18T16:46:40.523Z,11.00
2023-04-18T16:49:11.701Z,10.90
2023-04-18T16:52:05.049Z,11.00
2023-04-18T16:54:34.136Z,10.90
2023-04-18T16:57:06.849Z,10.90
2023-04-18T16:59:36.711Z,10.90
2023-04-18T17:02:05.777Z,10.80
2023-04-18T17:04:36.131Z,10.80
2023-04-18T17:07:11.569Z,10.70
2023-04-18T17:09:52.546Z,10.70
2023-04-18T17:12:32.524Z,10.60
2023-04-18T17:15:23.513Z,10.50
2023-04-18T17:18:06.714Z,10.50
2023-04-18T17:20:58.114Z,10.50
2023-04-18T17:23:32.946Z,10.50
2023-04-18T17:26:14.481Z,10.40
2023-04-18T17:28:49.960Z,10.30
2023-04-18T17:31:28.643Z,10.40
2023-04-18T17:34:03.471Z,10.30
2023-04-18T17:36:33.650Z,10.30
2023-04-18T17:39:09.575Z,10.30
2023-04-18T17:41:43.446Z,10.20
2023-04-18T17:44:17.350Z,10.20
2023-04-18T17:46:48.885Z,10.20
2023-04-18T17:49:23.296Z,10.30
2023-04-18T17:51:56.998Z,10.20
2023-04-18T17:54:32.176Z,10.10
2023-04-18T17:57:17.170Z,10.10
2023-04-18T17:59:47.837Z,10.00
2023-04-18T18:02:25.209Z,10.10
2023-04-18T18:04:57.735Z,10.10
2023-04-18T18:07:38.566Z,10.10
2023-04-18T18:10:29.425Z,10.00
2023-04-18T18:13:02.479Z,10.00
2023-04-18T18:15:42.775Z,10.00
2023-04-18T18:18:14.747Z,10.00
2023-04-18T18:20:43.798Z,9.90
2023-04-18T18:23:18.524Z,10.00
2023-04-18T18:25:58.858Z,9.80
2023-04-18T18:28:43.761Z,9.90
2023-04-18T18:31:14.497Z,9.80
2023-04-18T18:33:53.735Z,9.80
2023-04-18T18:36:26.986Z,9.90
2023-04-18T18:38:59.727Z,9.90
2023-04-18T18:41:46.674Z,9.90
2023-04-18T18:44:25.457Z,9.90
2023-04-18T18:47:00.705Z,9.90
2023-04-18T18:49:35.163Z,9.90
2023-04-18T18:52:06.354Z,9.90
2023-04-18T18:54:42.093Z,9.80
2023-04-18T18:57:40.658Z,9.80
2023-04-18T19:00:12.360Z,9.80
2023-04-18T19:02:46.634Z,9.80
2023-04-18T19:05:17.913Z,9.80
2023-04-18T19:07:55.124Z,9.90
2023-04-18T19:10:27.277Z,9.80
2023-04-18T19:12:58.155Z,9.80
2023-04-18T19:15:34.066Z,9.80
2023-04-18T19:18:21.558Z,9.70
2023-04-18T19:21:06.691Z,9.80
2023-04-18T19:23:38.534Z,9.80
2023-04-18T19:26:16.377Z,9.80
2023-04-18T19:29:05.390Z,9.80
2023-04-18T19:32:01.656Z,9.70
2023-04-18T19:34:36.785Z,9.80
2023-04-18T19:37:10.607Z,9.80
2023-04-18T19:39:59.550Z,9.80
2023-04-18T19:42:28.172Z,9.70
2023-04-18T19:44:59.298Z,9.70
2023-04-18T19:47:28.043Z,9.70
2023-04-18T19:49:56.268Z,9.70
2023-04-18T19:52:24.580Z,9.60
2023-04-18T19:54:54.129Z,9.60
2023-04-18T19:57:22.680Z,9.70
2023-04-18T19:59:50.934Z,9.80
2023-04-18T20:02:20.686Z,9.70
2023-04-18T20:04:51.771Z,9.80
2023-04-18T20:07:20.085Z,9.70
2023-04-18T20:09:48.239Z,9.60
2023-04-18T20:12:16.745Z,9.70
2023-04-18T20:14:45.396Z,9.60
2023-04-18T20:17:28.413Z,9.50
2023-04-18T20:20:04.079Z,9.60
2023-04-18T20:22:42.402Z,9.70
2023-04-18T20:25:18.333Z,9.70
2023-04-18T20:27:50.240Z,9.70
2023-04-18T20:30:27.726Z,9.60
2023-04-18T20:33:16.133Z,9.70
2023-04-18T20:36:00.967Z,9.60
2023-04-18T20:38:36.759Z,9.70
2023-04-18T20:41:15.227Z,9.60
2023-04-18T20:43:43.932Z,9.60
2023-04-18T20:46:19.922Z,9.70
2023-04-18T20:49:08.781Z,9.60
2023-04-18T20:51:47.494Z,9.80
2023-04-18T20:54:27.822Z,9.70
2023-04-18T20:57:24.319Z,9.70
2023-04-18T20:59:59.756Z,9.60
2023-04-18T21:02:32.988Z,9.60
2023-04-18T21:05:07.275Z,9.60
2023-04-18T21:07:44.049Z,9.70
2023-04-18T21:10:13.590Z,9.70
2023-04-18T21:12:41.907Z,9.70
2023-04-18T21:15:11.336Z,9.70
2023-04-18T21:17:39.546Z,9.70
2023-04-18T21:20:13.003Z,9.60
2023-04-18T21:22:41.205Z,9.70
2023-04-18T21:25:20.726Z,9.60
2023-04-18T21:28:09.214Z,9.60
2023-04-18T21:30:54.688Z,9.60
2023-04-18T21:33:27.621Z,9.60
2023-04-18T21:36:09.508Z,9.60
2023-04-18T21:38:41.961Z,9.60
2023-04-18T21:41:20.959Z,9.60
2023-04-18T21:44:02.270Z,9.60
2023-04-18T21:46:37.554Z,9.40
2023-04-18T21:49:15.597Z,9.50
2023-04-18T21:51:50.263Z,9.60
2023-04-18T21:54:43.297Z,9.50
2023-04-18T21:57:16.953Z,9.50
2023-04-18T21:59:49.512Z,9.50
2023-04-18T22:02:26.397Z,9.60
2023-04-18T22:04:56.417Z,9.60
2023-04-18T22:07:29.723Z,9.60
2023-04-18T22:10:01.919Z,9.60
2023-04-18T22:12:35.950Z,9.50
2023-04-18T22:15:13.011Z,9.60
2023-04-18T22:17:44.527Z,9.60
2023-04-18T22:20:17.588Z,9.50
2023-04-18T22:23:05.256Z,9.60
2023-04-18T22:25:34.520Z,9.60
2023-04-18T22:28:04.672Z,9.60
2023-04-18T22:30:48.477Z,9.60
2023-04-18T22:33:17.762Z,9.50
2023-04-18T22:36:02.929Z,9.50
2023-04-18T22:38:37.794Z,9.50
2023-04-18T22:41:14.657Z,9.60
2023-04-18T22:43:46.076Z,9.50
2023-04-18T22:46:24.681Z,9.60
2023-04-18T22:48:55.756Z,9.50
2023-04-18T22:51:28.759Z,9.40
2023-04-18T22:54:15.035Z,9.50
2023-04-18T22:57:01.335Z,9.50
2023-04-18T22:59:40.640Z,9.50
2023-04-18T23:02:21.654Z,9.50
2023-04-18T23:04:57.339Z,9.50
2023-04-18T23:07:32.971Z,9.50
2023-04-18T23:10:12.122Z,9.50
2023-04-18T23:12:48.933Z,9.40
2023-04-18T23:15:23.063Z,9.50
2023-04-18T23:18:05.851Z,9.50
2023-04-18T23:20:41.679Z,9.50
2023-04-18T23:23:16.476Z,9.40
2023-04-18T23:26:05.095Z,9.40
2023-04-18T23:28:53.618Z,9.40
2023-04-18T23:31:24.185Z,9.30
2023-04-18T23:33:54.552Z,9.20
2023-04-18T23:39:16.342Z,9.20
2023-04-18T23:42:01.695Z,9.20
2023-04-18T23:44:36.150Z,9.20
2023-04-18T23:47:12.582Z,9.10
2023-04-18T23:49:49.110Z,9.20
2023-04-18T23:52:32.081Z,9.20
2023-04-18T23:55:07.916Z,9.30
2023-04-18T23:57:38.548Z,9.20
